sensor_id;sensor_type;location;lat;lon;timestamp;temperature;humidity
28614;DHT22;15806;53.548;9.964;2022-09-17T00:00:24;19.00;99.90
28614;DHT22;15806;53.548;9.964;2022-09-17T00:02:05;19.00;99.90
28614;DHT22;15806;53.548;9.964;2022-09-17T00:03:50;18.90;99.90
28614;DHT22;15806;53.548;9.964;2022-09-17T00:05:31;18.90;99.90
28614;DHT22;15806;53.548;9.964;2022-09-17T00:07:11;18.80;99.90
28614;DHT22;15806;53.548;9.964;2022-09-17T00:08:53;18.70;99.90
28614;DHT22;15806;53.548;9.964;2022-09-17T00:10:37;18.60;99.90
28614;DHT22;15806;53.548;9.964;2022-09-17T00:12:18;18.50;99.90
28614;DHT22;15806;53.548;9.964;2022-09-17T00:14:00;18.40;99.90
28614;DHT22;15806;53.548;9.964;2022-09-17T00:15:43;18.40;99.90
28614;DHT22;15806;53.548;9.964;2022-09-17T00:17:23;18.30;99.90
28614;DHT22;15806;53.548;9.964;2022-09-17T00:19:05;18.20;99.90
28614;DHT22;15806;53.548;9.964;2022-09-17T00:20:46;18.20;99.90
28614;DHT22;15806;53.548;9.964;2022-09-17T00:22:27;18.20;99.90
28614;DHT22;15806;53.548;9.964;2022-09-17T00:24:10;18.20;99.90
28614;DHT22;15806;53.548;9.964;2022-09-17T00:25:50;18.10;99.90
28614;DHT22;15806;53.548;9.964;2022-09-17T00:27:31;18.10;99.90
28614;DHT22;15806;53.548;9.964;2022-09-17T00:29:12;18.00;99.90
28614;DHT22;15806;53.548;9.964;2022-09-17T00:30:53;18.00;99.90
28614;DHT22;15806;53.548;9.964;2022-09-17T00:32:33;18.00;99.90
28614;DHT22;15806;53.548;9.964;2022-09-17T00:34:14;18.00;99.90
28614;DHT22;15806;53.548;9.964;2022-09-17T00:35:59;17.90;99.90
28614;DHT22;15806;53.548;9.964;2022-09-17T00:37:40;17.90;99.90
28614;DHT22;15806;53.548;9.964;2022-09-17T00:39:21;17.90;99.90
28614;DHT22;15806;53.548;9.964;2022-09-17T00:41:02;17.90;99.90
28614;DHT22;15806;53.548;9.964;2022-09-17T00:42:43;17.80;99.90
28614;DHT22;15806;53.548;9.964;2022-09-17T00:44:44;17.80;99.90
28614;DHT22;15806;53.548;9.964;2022-09-17T00:46:37;17.80;99.90
28614;DHT22;15806;53.548;9.964;2022-09-17T00:48:19;17.70;99.90
28614;DHT22;15806;53.548;9.964;2022-09-17T00:50:11;17.60;99.90
28614;DHT22;15806;53.548;9.964;2022-09-17T00:52:08;17.50;99.90
28614;DHT22;15806;53.548;9.964;2022-09-17T00:53:49;17.40;99.90
28614;DHT22;15806;53.548;9.964;2022-09-17T00:55:30;17.30;99.90
28614;DHT22;15806;53.548;9.964;2022-09-17T00:57:12;17.20;99.90
28614;DHT22;15806;53.548;9.964;2022-09-17T00:58:53;17.20;99.90
28614;DHT22;15806;53.548;9.964;2022-09-17T01:00:35;17.10;99.90
28614;DHT22;15806;53.548;9.964;2022-09-17T01:02:16;17.10;99.90
28614;DHT22;15806;53.548;9.964;2022-09-17T01:03:56;17.00;99.90
28614;DHT22;15806;53.548;9.964;2022-09-17T01:05:56;16.90;99.90
28614;DHT22;15806;53.548;9.964;2022-09-17T01:09:54;16.80;99.90
28614;DHT22;15806;53.548;9.964;2022-09-17T01:14:01;16.70;99.90
28614;DHT22;15806;53.548;9.964;2022-09-17T01:17:40;16.50;99.90
28614;DHT22;15806;53.548;9.964;2022-09-17T01:26:07;16.40;99.90
28614;DHT22;15806;53.548;9.964;2022-09-17T01:28:13;16.40;99.90
28614;DHT22;15806;53.548;9.964;2022-09-17T01:30:25;16.40;99.90
28614;DHT22;15806;53.548;9.964;2022-09-17T01:34:00;16.40;99.90
28614;DHT22;15806;53.548;9.964;2022-09-17T01:37:56;16.30;99.90
28614;DHT22;15806;53.548;9.964;2022-09-17T01:40:19;16.20;99.90
28614;DHT22;15806;53.548;9.964;2022-09-17T01:42:09;16.20;99.90
28614;DHT22;15806;53.548;9.964;2022-09-17T01:44:06;16.10;99.90
28614;DHT22;15806;53.548;9.964;2022-09-17T01:45:51;16.10;99.90
28614;DHT22;15806;53.548;9.964;2022-09-17T01:47:38;16.10;99.90
28614;DHT22;15806;53.548;9.964;2022-09-17T01:49:22;16.10;99.90
28614;DHT22;15806;53.548;9.964;2022-09-17T01:51:06;16.10;99.90
28614;DHT22;15806;53.548;9.964;2022-09-17T01:52:49;16.00;99.90
28614;DHT22;15806;53.548;9.964;2022-09-17T01:54:34;16.00;99.90
28614;DHT22;15806;53.548;9.964;2022-09-17T01:56:20;16.00;99.90
28614;DHT22;15806;53.548;9.964;2022-09-17T01:59:56;15.90;99.90
28614;DHT22;15806;53.548;9.964;2022-09-17T02:01:40;15.90;99.90
28614;DHT22;15806;53.548;9.964;2022-09-17T02:03:30;15.90;99.90
28614;DHT22;15806;53.548;9.964;2022-09-17T02:05:18;15.90;99.90
28614;DHT22;15806;53.548;9.964;2022-09-17T02:07:10;16.00;99.90
28614;DHT22;15806;53.548;9.964;2022-09-17T02:08:53;16.00;99.90
28614;DHT22;15806;53.548;9.964;2022-09-17T02:10:41;16.00;99.90
28614;DHT22;15806;53.548;9.964;2022-09-17T02:12:28;16.00;99.90
28614;DHT22;15806;53.548;9.964;2022-09-17T02:14:15;16.00;99.90
28614;DHT22;15806;53.548;9.964;2022-09-17T02:16:05;16.00;99.90
28614;DHT22;15806;53.548;9.964;2022-09-17T02:18:09;16.00;99.90
28614;DHT22;15806;53.548;9.964;2022-09-17T02:19:51;16.10;99.90
28614;DHT22;15806;53.548;9.964;2022-09-17T02:26:10;16.10;99.90
28614;DHT22;15806;53.548;9.964;2022-09-17T02:29:43;16.10;99.90
28614;DHT22;15806;53.548;9.964;2022-09-17T02:31:24;16.20;99.90
28614;DHT22;15806;53.548;9.964;2022-09-17T02:33:07;16.10;99.90
28614;DHT22;15806;53.548;9.964;2022-09-17T02:34:48;16.20;99.90
28614;DHT22;15806;53.548;9.964;2022-09-17T02:36:29;16.20;99.90
28614;DHT22;15806;53.548;9.964;2022-09-17T02:38:10;16.20;99.90
28614;DHT22;15806;53.548;9.964;2022-09-17T02:39:51;16.30;99.90
28614;DHT22;15806;53.548;9.964;2022-09-17T02:41:56;16.20;99.90
28614;DHT22;15806;53.548;9.964;2022-09-17T02:44:07;16.30;99.90
28614;DHT22;15806;53.548;9.964;2022-09-17T02:48:18;16.30;99.90
28614;DHT22;15806;53.548;9.964;2022-09-17T02:53:56;16.30;99.90
28614;DHT22;15806;53.548;9.964;2022-09-17T02:55:58;16.30;99.90
28614;DHT22;15806;53.548;9.964;2022-09-17T02:58:04;16.40;99.90
28614;DHT22;15806;53.548;9.964;2022-09-17T03:00:00;16.40;99.90
28614;DHT22;15806;53.548;9.964;2022-09-17T03:01:52;16.50;99.90
28614;DHT22;15806;53.548;9.964;2022-09-17T03:03:41;16.50;99.90
28614;DHT22;15806;53.548;9.964;2022-09-17T03:05:24;16.50;99.90
28614;DHT22;15806;53.548;9.964;2022-09-17T03:07:07;16.40;99.90
28614;DHT22;15806;53.548;9.964;2022-09-17T03:08:49;16.40;99.90
28614;DHT22;15806;53.548;9.964;2022-09-17T03:10:29;16.50;99.90
28614;DHT22;15806;53.548;9.964;2022-09-17T03:12:10;16.40;99.90
28614;DHT22;15806;53.548;9.964;2022-09-17T03:13:51;16.40;99.90
28614;DHT22;15806;53.548;9.964;2022-09-17T03:15:32;16.40;99.90
28614;DHT22;15806;53.548;9.964;2022-09-17T03:17:12;16.40;99.90
28614;DHT22;15806;53.548;9.964;2022-09-17T03:18:53;16.40;99.90
28614;DHT22;15806;53.548;9.964;2022-09-17T03:20:33;16.50;99.90
28614;DHT22;15806;53.548;9.964;2022-09-17T03:22:16;16.50;99.90
28614;DHT22;15806;53.548;9.964;2022-09-17T03:23:57;16.50;99.90
28614;DHT22;15806;53.548;9.964;2022-09-17T03:25:37;16.50;99.90
28614;DHT22;15806;53.548;9.964;2022-09-17T03:27:18;16.50;99.90
28614;DHT22;15806;53.548;9.964;2022-09-17T03:28:58;16.60;99.90
28614;DHT22;15806;53.548;9.964;2022-09-17T03:30:39;16.60;99.90
28614;DHT22;15806;53.548;9.964;2022-09-17T03:32:19;16.60;99.90
28614;DHT22;15806;53.548;9.964;2022-09-17T03:34:00;16.50;99.90
28614;DHT22;15806;53.548;9.964;2022-09-17T03:35:44;16.60;99.90
28614;DHT22;15806;53.548;9.964;2022-09-17T03:37:25;16.50;99.90
28614;DHT22;15806;53.548;9.964;2022-09-17T03:39:05;16.50;99.90
28614;DHT22;15806;53.548;9.964;2022-09-17T03:40:57;16.50;99.90
28614;DHT22;15806;53.548;9.964;2022-09-17T03:42:37;16.50;99.90
28614;DHT22;15806;53.548;9.964;2022-09-17T03:44:18;16.60;99.90
28614;DHT22;15806;53.548;9.964;2022-09-17T03:45:58;16.60;99.90
28614;DHT22;15806;53.548;9.964;2022-09-17T03:47:39;16.50;99.90
28614;DHT22;15806;53.548;9.964;2022-09-17T03:49:19;16.60;99.90
28614;DHT22;15806;53.548;9.964;2022-09-17T03:51:00;16.50;99.90
28614;DHT22;15806;53.548;9.964;2022-09-17T03:52:42;16.50;99.90
28614;DHT22;15806;53.548;9.964;2022-09-17T03:54:22;16.50;99.90
28614;DHT22;15806;53.548;9.964;2022-09-17T03:56:05;16.50;99.90
28614;DHT22;15806;53.548;9.964;2022-09-17T03:57:45;16.40;99.90
28614;DHT22;15806;53.548;9.964;2022-09-17T03:59:26;16.50;99.90
28614;DHT22;15806;53.548;9.964;2022-09-17T04:01:06;16.40;99.90
28614;DHT22;15806;53.548;9.964;2022-09-17T04:02:47;16.40;99.90
28614;DHT22;15806;53.548;9.964;2022-09-17T04:04:27;16.40;99.90
28614;DHT22;15806;53.548;9.964;2022-09-17T04:06:08;16.30;99.90
28614;DHT22;15806;53.548;9.964;2022-09-17T04:07:49;16.20;99.90
28614;DHT22;15806;53.548;9.964;2022-09-17T04:09:29;16.10;99.90
28614;DHT22;15806;53.548;9.964;2022-09-17T04:11:10;16.10;99.90
28614;DHT22;15806;53.548;9.964;2022-09-17T04:12:50;16.00;99.90
28614;DHT22;15806;53.548;9.964;2022-09-17T04:14:31;16.00;99.90
28614;DHT22;15806;53.548;9.964;2022-09-17T04:16:11;16.00;99.90
28614;DHT22;15806;53.548;9.964;2022-09-17T04:17:55;16.00;99.90
28614;DHT22;15806;53.548;9.964;2022-09-17T04:19:36;16.00;99.90
28614;DHT22;15806;53.548;9.964;2022-09-17T04:21:16;15.90;99.90
28614;DHT22;15806;53.548;9.964;2022-09-17T04:22:57;15.90;99.90
28614;DHT22;15806;53.548;9.964;2022-09-17T04:24:37;15.90;99.90
28614;DHT22;15806;53.548;9.964;2022-09-17T04:26:18;15.90;99.90
28614;DHT22;15806;53.548;9.964;2022-09-17T04:27:58;15.90;99.90
28614;DHT22;15806;53.548;9.964;2022-09-17T04:29:39;15.90;99.90
28614;DHT22;15806;53.548;9.964;2022-09-17T04:31:19;15.90;99.90
28614;DHT22;15806;53.548;9.964;2022-09-17T04:33:00;15.90;99.90
28614;DHT22;15806;53.548;9.964;2022-09-17T04:34:40;15.90;99.90
28614;DHT22;15806;53.548;9.964;2022-09-17T04:36:21;15.90;99.90
28614;DHT22;15806;53.548;9.964;2022-09-17T04:38:02;15.90;99.90
28614;DHT22;15806;53.548;9.964;2022-09-17T04:39:42;15.80;99.90
28614;DHT22;15806;53.548;9.964;2022-09-17T04:41:23;15.80;99.90
28614;DHT22;15806;53.548;9.964;2022-09-17T04:43:03;15.80;99.90
28614;DHT22;15806;53.548;9.964;2022-09-17T04:44:44;15.80;99.90
28614;DHT22;15806;53.548;9.964;2022-09-17T04:46:24;15.80;99.90
28614;DHT22;15806;53.548;9.964;2022-09-17T04:48:05;15.90;99.90
28614;DHT22;15806;53.548;9.964;2022-09-17T04:49:45;15.80;99.90
28614;DHT22;15806;53.548;9.964;2022-09-17T04:51:26;15.80;99.90
28614;DHT22;15806;53.548;9.964;2022-09-17T04:53:06;15.80;99.90
28614;DHT22;15806;53.548;9.964;2022-09-17T04:54:47;15.80;99.90
28614;DHT22;15806;53.548;9.964;2022-09-17T04:56:27;15.80;99.90
28614;DHT22;15806;53.548;9.964;2022-09-17T04:58:08;15.80;99.90
28614;DHT22;15806;53.548;9.964;2022-09-17T04:59:48;15.80;99.90
28614;DHT22;15806;53.548;9.964;2022-09-17T05:01:29;15.80;99.90
28614;DHT22;15806;53.548;9.964;2022-09-17T05:03:09;15.80;99.90
28614;DHT22;15806;53.548;9.964;2022-09-17T05:04:50;15.80;99.90
28614;DHT22;15806;53.548;9.964;2022-09-17T05:06:30;15.80;99.90
28614;DHT22;15806;53.548;9.964;2022-09-17T05:08:11;15.80;99.90
28614;DHT22;15806;53.548;9.964;2022-09-17T05:09:51;15.80;99.90
28614;DHT22;15806;53.548;9.964;2022-09-17T05:11:32;15.80;99.90
28614;DHT22;15806;53.548;9.964;2022-09-17T05:13:13;15.90;99.90
28614;DHT22;15806;53.548;9.964;2022-09-17T05:14:53;15.90;99.90
28614;DHT22;15806;53.548;9.964;2022-09-17T05:16:34;15.90;99.90
28614;DHT22;15806;53.548;9.964;2022-09-17T05:18:14;16.00;99.90
28614;DHT22;15806;53.548;9.964;2022-09-17T05:19:55;16.10;99.90
28614;DHT22;15806;53.548;9.964;2022-09-17T05:21:35;16.10;99.90
28614;DHT22;15806;53.548;9.964;2022-09-17T05:23:16;16.10;99.90
28614;DHT22;15806;53.548;9.964;2022-09-17T05:24:56;16.10;99.90
28614;DHT22;15806;53.548;9.964;2022-09-17T05:26:37;16.10;99.90
28614;DHT22;15806;53.548;9.964;2022-09-17T05:28:17;16.10;99.90
28614;DHT22;15806;53.548;9.964;2022-09-17T05:29:58;16.10;99.90
28614;DHT22;15806;53.548;9.964;2022-09-17T05:31:38;16.10;99.90
28614;DHT22;15806;53.548;9.964;2022-09-17T05:33:19;16.10;99.90
28614;DHT22;15806;53.548;9.964;2022-09-17T05:34:59;16.10;99.90
28614;DHT22;15806;53.548;9.964;2022-09-17T05:36:40;16.10;99.90
28614;DHT22;15806;53.548;9.964;2022-09-17T05:38:20;16.10;99.90
28614;DHT22;15806;53.548;9.964;2022-09-17T05:40:03;16.10;99.90
28614;DHT22;15806;53.548;9.964;2022-09-17T05:41:43;16.20;99.90
28614;DHT22;15806;53.548;9.964;2022-09-17T05:43:24;16.20;99.90
28614;DHT22;15806;53.548;9.964;2022-09-17T05:45:05;16.30;99.90
28614;DHT22;15806;53.548;9.964;2022-09-17T05:46:46;16.30;99.90
28614;DHT22;15806;53.548;9.964;2022-09-17T05:48:27;16.30;99.90
28614;DHT22;15806;53.548;9.964;2022-09-17T05:50:08;16.20;99.90
28614;DHT22;15806;53.548;9.964;2022-09-17T05:51:49;16.20;99.90
28614;DHT22;15806;53.548;9.964;2022-09-17T05:53:30;16.20;99.90
28614;DHT22;15806;53.548;9.964;2022-09-17T05:55:10;16.10;99.90
28614;DHT22;15806;53.548;9.964;2022-09-17T05:56:54;16.10;99.90
28614;DHT22;15806;53.548;9.964;2022-09-17T05:58:34;16.10;99.90
28614;DHT22;15806;53.548;9.964;2022-09-17T06:00:15;16.10;99.90
28614;DHT22;15806;53.548;9.964;2022-09-17T06:01:56;16.10;99.90
28614;DHT22;15806;53.548;9.964;2022-09-17T06:03:36;16.00;99.90
28614;DHT22;15806;53.548;9.964;2022-09-17T06:05:17;16.00;99.90
28614;DHT22;15806;53.548;9.964;2022-09-17T06:06:57;16.10;99.90
28614;DHT22;15806;53.548;9.964;2022-09-17T06:08:38;16.10;99.90
28614;DHT22;15806;53.548;9.964;2022-09-17T06:10:18;16.10;99.90
28614;DHT22;15806;53.548;9.964;2022-09-17T06:11:59;16.00;99.90
28614;DHT22;15806;53.548;9.964;2022-09-17T06:13:39;16.00;99.90
28614;DHT22;15806;53.548;9.964;2022-09-17T06:15:20;16.00;99.90
28614;DHT22;15806;53.548;9.964;2022-09-17T06:17:00;15.90;99.90
28614;DHT22;15806;53.548;9.964;2022-09-17T06:18:41;15.90;99.90
28614;DHT22;15806;53.548;9.964;2022-09-17T06:20:22;15.90;99.90
28614;DHT22;15806;53.548;9.964;2022-09-17T06:22:02;15.90;99.90
28614;DHT22;15806;53.548;9.964;2022-09-17T06:23:43;15.90;99.90
28614;DHT22;15806;53.548;9.964;2022-09-17T06:25:24;15.90;99.90
28614;DHT22;15806;53.548;9.964;2022-09-17T06:27:05;15.80;99.90
28614;DHT22;15806;53.548;9.964;2022-09-17T06:28:45;15.90;99.90
28614;DHT22;15806;53.548;9.964;2022-09-17T06:30:26;15.70;99.90
28614;DHT22;15806;53.548;9.964;2022-09-17T06:32:09;15.70;99.90
28614;DHT22;15806;53.548;9.964;2022-09-17T06:33:50;15.60;99.90
28614;DHT22;15806;53.548;9.964;2022-09-17T06:35:30;15.70;99.90
28614;DHT22;15806;53.548;9.964;2022-09-17T06:37:11;15.60;99.90
28614;DHT22;15806;53.548;9.964;2022-09-17T06:38:51;15.60;99.90
28614;DHT22;15806;53.548;9.964;2022-09-17T06:40:32;15.50;99.90
28614;DHT22;15806;53.548;9.964;2022-09-17T06:42:12;15.50;99.90
28614;DHT22;15806;53.548;9.964;2022-09-17T06:43:53;15.70;99.90
28614;DHT22;15806;53.548;9.964;2022-09-17T06:45:33;15.80;99.90
28614;DHT22;15806;53.548;9.964;2022-09-17T06:47:14;16.00;99.90
28614;DHT22;15806;53.548;9.964;2022-09-17T06:48:54;16.30;99.90
28614;DHT22;15806;53.548;9.964;2022-09-17T06:50:35;15.90;99.90
28614;DHT22;15806;53.548;9.964;2022-09-17T06:52:15;15.80;99.90
28614;DHT22;15806;53.548;9.964;2022-09-17T06:53:56;15.50;99.90
28614;DHT22;15806;53.548;9.964;2022-09-17T06:55:36;15.20;99.90
28614;DHT22;15806;53.548;9.964;2022-09-17T06:57:17;15.20;99.90
28614;DHT22;15806;53.548;9.964;2022-09-17T06:58:57;14.80;99.90
28614;DHT22;15806;53.548;9.964;2022-09-17T07:00:38;14.70;99.90
28614;DHT22;15806;53.548;9.964;2022-09-17T07:02:19;14.60;99.90
28614;DHT22;15806;53.548;9.964;2022-09-17T07:03:59;14.50;99.90
28614;DHT22;15806;53.548;9.964;2022-09-17T07:05:42;14.40;99.90
28614;DHT22;15806;53.548;9.964;2022-09-17T07:07:23;14.40;99.90
28614;DHT22;15806;53.548;9.964;2022-09-17T07:09:04;14.40;99.90
28614;DHT22;15806;53.548;9.964;2022-09-17T07:10:44;14.20;99.90
28614;DHT22;15806;53.548;9.964;2022-09-17T07:12:24;14.20;99.90
28614;DHT22;15806;53.548;9.964;2022-09-17T07:14:05;14.00;99.90
28614;DHT22;15806;53.548;9.964;2022-09-17T07:15:56;13.90;99.90
28614;DHT22;15806;53.548;9.964;2022-09-17T07:17:37;13.90;99.90
28614;DHT22;15806;53.548;9.964;2022-09-17T07:19:18;13.90;99.90
28614;DHT22;15806;53.548;9.964;2022-09-17T07:21:03;13.90;99.90
28614;DHT22;15806;53.548;9.964;2022-09-17T07:22:44;13.90;99.90
28614;DHT22;15806;53.548;9.964;2022-09-17T07:24:24;13.90;99.90
28614;DHT22;15806;53.548;9.964;2022-09-17T07:26:13;14.00;99.90
28614;DHT22;15806;53.548;9.964;2022-09-17T07:27:54;13.80;99.90
28614;DHT22;15806;53.548;9.964;2022-09-17T07:29:34;13.70;99.90
28614;DHT22;15806;53.548;9.964;2022-09-17T07:31:15;13.70;99.90
28614;DHT22;15806;53.548;9.964;2022-09-17T07:32:56;13.70;99.90
28614;DHT22;15806;53.548;9.964;2022-09-17T07:34:40;13.70;99.90
28614;DHT22;15806;53.548;9.964;2022-09-17T07:36:20;13.80;99.90
28614;DHT22;15806;53.548;9.964;2022-09-17T07:38:00;13.90;99.90
28614;DHT22;15806;53.548;9.964;2022-09-17T07:39:41;13.70;99.90
28614;DHT22;15806;53.548;9.964;2022-09-17T07:41:22;13.70;99.90
28614;DHT22;15806;53.548;9.964;2022-09-17T07:43:02;13.90;99.90
28614;DHT22;15806;53.548;9.964;2022-09-17T07:44:43;13.80;99.90
28614;DHT22;15806;53.548;9.964;2022-09-17T07:46:23;13.70;99.90
28614;DHT22;15806;53.548;9.964;2022-09-17T07:48:04;13.70;99.90
28614;DHT22;15806;53.548;9.964;2022-09-17T07:49:44;13.80;99.90
28614;DHT22;15806;53.548;9.964;2022-09-17T07:51:26;13.90;99.90
28614;DHT22;15806;53.548;9.964;2022-09-17T07:53:06;14.10;99.90
28614;DHT22;15806;53.548;9.964;2022-09-17T07:54:47;14.20;99.90
28614;DHT22;15806;53.548;9.964;2022-09-17T07:56:28;14.30;99.90
28614;DHT22;15806;53.548;9.964;2022-09-17T07:58:08;14.30;99.90
28614;DHT22;15806;53.548;9.964;2022-09-17T07:59:49;14.30;99.90
28614;DHT22;15806;53.548;9.964;2022-09-17T08:01:31;14.30;99.90
28614;DHT22;15806;53.548;9.964;2022-09-17T08:03:12;14.30;99.90
28614;DHT22;15806;53.548;9.964;2022-09-17T08:04:52;14.30;99.90
28614;DHT22;15806;53.548;9.964;2022-09-17T08:06:36;14.20;99.90
28614;DHT22;15806;53.548;9.964;2022-09-17T08:08:17;14.10;99.90
28614;DHT22;15806;53.548;9.964;2022-09-17T08:09:57;14.00;99.90
28614;DHT22;15806;53.548;9.964;2022-09-17T08:11:38;14.00;99.90
28614;DHT22;15806;53.548;9.964;2022-09-17T08:13:18;14.00;99.90
28614;DHT22;15806;53.548;9.964;2022-09-17T08:14:59;14.00;99.90
28614;DHT22;15806;53.548;9.964;2022-09-17T08:16:39;13.90;99.90
28614;DHT22;15806;53.548;9.964;2022-09-17T08:18:20;13.90;99.90
28614;DHT22;15806;53.548;9.964;2022-09-17T08:20:00;14.00;99.90
28614;DHT22;15806;53.548;9.964;2022-09-17T08:21:41;14.00;99.90
28614;DHT22;15806;53.548;9.964;2022-09-17T08:23:22;13.90;99.90
28614;DHT22;15806;53.548;9.964;2022-09-17T08:25:03;14.00;99.90
28614;DHT22;15806;53.548;9.964;2022-09-17T08:26:44;13.90;99.90
28614;DHT22;15806;53.548;9.964;2022-09-17T08:28:28;14.00;99.90
28614;DHT22;15806;53.548;9.964;2022-09-17T08:30:09;14.10;99.90
28614;DHT22;15806;53.548;9.964;2022-09-17T08:31:50;13.90;99.90
28614;DHT22;15806;53.548;9.964;2022-09-17T08:33:32;13.90;99.90
28614;DHT22;15806;53.548;9.964;2022-09-17T08:35:12;13.80;99.90
28614;DHT22;15806;53.548;9.964;2022-09-17T08:36:53;13.80;99.90
28614;DHT22;15806;53.548;9.964;2022-09-17T08:38:34;14.10;99.90
28614;DHT22;15806;53.548;9.964;2022-09-17T08:40:17;14.30;99.90
28614;DHT22;15806;53.548;9.964;2022-09-17T08:42:08;14.30;99.90
28614;DHT22;15806;53.548;9.964;2022-09-17T08:45:41;14.30;99.90
28614;DHT22;15806;53.548;9.964;2022-09-17T08:47:24;14.10;99.90
28614;DHT22;15806;53.548;9.964;2022-09-17T08:49:29;14.20;99.90
28614;DHT22;15806;53.548;9.964;2022-09-17T08:53:40;14.00;99.90
28614;DHT22;15806;53.548;9.964;2022-09-17T08:55:42;14.20;99.90
28614;DHT22;15806;53.548;9.964;2022-09-17T08:59:42;14.00;99.90
28614;DHT22;15806;53.548;9.964;2022-09-17T09:01:44;14.20;99.90
28614;DHT22;15806;53.548;9.964;2022-09-17T09:05:51;14.20;99.90
28614;DHT22;15806;53.548;9.964;2022-09-17T09:07:42;14.30;99.90
28614;DHT22;15806;53.548;9.964;2022-09-17T09:09:26;14.30;99.90
28614;DHT22;15806;53.548;9.964;2022-09-17T09:11:27;14.30;99.90
28614;DHT22;15806;53.548;9.964;2022-09-17T09:13:09;14.20;99.90
28614;DHT22;15806;53.548;9.964;2022-09-17T09:14:55;14.30;99.90
28614;DHT22;15806;53.548;9.964;2022-09-17T09:16:41;14.00;99.90
28614;DHT22;15806;53.548;9.964;2022-09-17T09:18:28;13.80;99.90
28614;DHT22;15806;53.548;9.964;2022-09-17T09:20:16;13.70;99.90
28614;DHT22;15806;53.548;9.964;2022-09-17T09:22:09;13.60;99.90
28614;DHT22;15806;53.548;9.964;2022-09-17T09:25:39;13.30;99.90
28614;DHT22;15806;53.548;9.964;2022-09-17T09:27:44;13.20;99.90
28614;DHT22;15806;53.548;9.964;2022-09-17T09:29:58;13.30;99.90
28614;DHT22;15806;53.548;9.964;2022-09-17T09:33:50;13.60;99.90
28614;DHT22;15806;53.548;9.964;2022-09-17T09:35:35;13.50;99.90
28614;DHT22;15806;53.548;9.964;2022-09-17T09:37:27;13.50;99.90
28614;DHT22;15806;53.548;9.964;2022-09-17T09:40:56;13.30;99.90
28614;DHT22;15806;53.548;9.964;2022-09-17T09:42:38;13.30;99.90
28614;DHT22;15806;53.548;9.964;2022-09-17T09:44:19;13.40;99.90
28614;DHT22;15806;53.548;9.964;2022-09-17T09:48:27;13.70;99.90
28614;DHT22;15806;53.548;9.964;2022-09-17T09:50:37;13.70;99.90
28614;DHT22;15806;53.548;9.964;2022-09-17T09:52:58;13.80;99.90
28614;DHT22;15806;53.548;9.964;2022-09-17T09:57:00;13.70;99.90
28614;DHT22;15806;53.548;9.964;2022-09-17T09:58:42;13.40;99.90
28614;DHT22;15806;53.548;9.964;2022-09-17T10:00:36;13.10;99.90
28614;DHT22;15806;53.548;9.964;2022-09-17T10:02:18;13.30;99.90
28614;DHT22;15806;53.548;9.964;2022-09-17T10:03:58;13.40;99.90
28614;DHT22;15806;53.548;9.964;2022-09-17T10:05:39;13.40;99.90
28614;DHT22;15806;53.548;9.964;2022-09-17T10:07:31;13.30;99.90
28614;DHT22;15806;53.548;9.964;2022-09-17T10:09:21;13.40;99.90
28614;DHT22;15806;53.548;9.964;2022-09-17T10:12:42;13.90;99.90
28614;DHT22;15806;53.548;9.964;2022-09-17T10:14:25;13.50;99.90
28614;DHT22;15806;53.548;9.964;2022-09-17T10:18:13;13.10;99.90
28614;DHT22;15806;53.548;9.964;2022-09-17T10:21:40;13.50;99.90
28614;DHT22;15806;53.548;9.964;2022-09-17T10:23:22;13.40;99.90
28614;DHT22;15806;53.548;9.964;2022-09-17T10:25:17;13.30;99.90
28614;DHT22;15806;53.548;9.964;2022-09-17T10:27:13;13.20;99.90
28614;DHT22;15806;53.548;9.964;2022-09-17T10:28:57;12.90;99.90
28614;DHT22;15806;53.548;9.964;2022-09-17T10:30:57;13.00;99.90
28614;DHT22;15806;53.548;9.964;2022-09-17T10:32:40;13.10;99.90
28614;DHT22;15806;53.548;9.964;2022-09-17T10:34:26;12.80;99.90
28614;DHT22;15806;53.548;9.964;2022-09-17T10:36:12;12.90;99.90
28614;DHT22;15806;53.548;9.964;2022-09-17T10:37:53;12.90;99.90
28614;DHT22;15806;53.548;9.964;2022-09-17T10:39:38;13.20;99.90
28614;DHT22;15806;53.548;9.964;2022-09-17T10:41:20;13.20;99.90
28614;DHT22;15806;53.548;9.964;2022-09-17T10:44:51;13.20;99.90
28614;DHT22;15806;53.548;9.964;2022-09-17T10:46:32;13.40;99.90
28614;DHT22;15806;53.548;9.964;2022-09-17T10:48:20;13.30;99.90
28614;DHT22;15806;53.548;9.964;2022-09-17T10:50:14;13.00;99.90
28614;DHT22;15806;53.548;9.964;2022-09-17T10:52:29;13.20;99.90
28614;DHT22;15806;53.548;9.964;2022-09-17T10:56:41;13.30;99.90
28614;DHT22;15806;53.548;9.964;2022-09-17T10:58:50;13.10;99.90
28614;DHT22;15806;53.548;9.964;2022-09-17T11:00:29;13.40;99.90
28614;DHT22;15806;53.548;9.964;2022-09-17T11:08:16;13.60;99.90
28614;DHT22;15806;53.548;9.964;2022-09-17T11:10:12;13.60;99.90
28614;DHT22;15806;53.548;9.964;2022-09-17T11:18:07;13.80;99.90
28614;DHT22;15806;53.548;9.964;2022-09-17T11:22:50;14.70;99.90
28614;DHT22;15806;53.548;9.964;2022-09-17T11:26:50;13.60;99.90
28614;DHT22;15806;53.548;9.964;2022-09-17T11:31:12;15.40;99.90
28614;DHT22;15806;53.548;9.964;2022-09-17T11:33:12;15.60;99.90
28614;DHT22;15806;53.548;9.964;2022-09-17T11:34:59;14.90;99.90
28614;DHT22;15806;53.548;9.964;2022-09-17T11:36:56;15.20;99.90
28614;DHT22;15806;53.548;9.964;2022-09-17T11:38:40;15.20;99.90
28614;DHT22;15806;53.548;9.964;2022-09-17T11:40:35;14.60;99.90
28614;DHT22;15806;53.548;9.964;2022-09-17T11:42:21;13.70;99.90
28614;DHT22;15806;53.548;9.964;2022-09-17T11:44:12;13.80;99.90
28614;DHT22;15806;53.548;9.964;2022-09-17T11:46:05;13.90;99.90
28614;DHT22;15806;53.548;9.964;2022-09-17T11:48:19;14.10;99.90
28614;DHT22;15806;53.548;9.964;2022-09-17T11:54:17;13.60;99.90
28614;DHT22;15806;53.548;9.964;2022-09-17T11:58:33;13.70;99.90
28614;DHT22;15806;53.548;9.964;2022-09-17T12:00:19;13.50;99.90
28614;DHT22;15806;53.548;9.964;2022-09-17T12:02:04;13.80;99.90
28614;DHT22;15806;53.548;9.964;2022-09-17T12:03:54;14.00;99.90
28614;DHT22;15806;53.548;9.964;2022-09-17T12:05:42;14.80;99.90
28614;DHT22;15806;53.548;9.964;2022-09-17T12:07:44;13.90;99.90
28614;DHT22;15806;53.548;9.964;2022-09-17T12:09:31;14.00;99.90
28614;DHT22;15806;53.548;9.964;2022-09-17T12:11:19;13.70;99.90
28614;DHT22;15806;53.548;9.964;2022-09-17T12:15:28;13.70;99.90
28614;DHT22;15806;53.548;9.964;2022-09-17T12:17:17;15.70;99.90
28614;DHT22;15806;53.548;9.964;2022-09-17T12:19:20;16.90;99.90
28614;DHT22;15806;53.548;9.964;2022-09-17T12:21:04;17.30;99.90
28614;DHT22;15806;53.548;9.964;2022-09-17T12:22:47;15.50;99.90
28614;DHT22;15806;53.548;9.964;2022-09-17T12:24:30;16.60;99.90
28614;DHT22;15806;53.548;9.964;2022-09-17T12:28:25;15.00;99.90
28614;DHT22;15806;53.548;9.964;2022-09-17T12:34:37;14.30;99.90